Williamstown, MA

8:05 PM EDT on August 29, 2015 (GMT -0400)
North Hoosac Rd | | Change Station
CLOSE
Current Station
Personal Weather Station
Location: Williamstown, MA
Elevation: 646 ft
Nearby Weather Stations

Elev 646 ft 42.72 °N, 73.19 °W | Updated 11 minutes ago

Clear
Clear
67.8 °F
Feels Like 67.8 °F
N
0.0
Wind Variable Wind from North

Today
High -- | Low -- °F
--% Chance of Precip.
Yesterday
High -- | Low -- °F
Precip. -- in
6:14 AM 7:32 PM
Full, 100% visible
Pressure 30.11 in
Visibility 10.0 miles
Clouds Clear
Dew Point 61 °F
Humidity 79%
Rainfall 0.00 in
Snow Depth Not available.
UV 0 out of 12
Pollen 9.10 out of 12
Air Quality Not available.
Flu Activity Not available.
METAR KAQW 292352Z AUTO 00000KT 10SM CLR 18/16 A3011 RMK AO2 SLP196 T01780156 10256 20178 55000
Pressure 30.11 in
Visibility 10.0 miles
Clouds Clear
Dew Point 61 °F
Humidity 79%
Rainfall 0.00 in
Snow Depth Not available.
UV 0 out of 12
Pollen 9.10 out of 12
Air Quality Not available.
Flu Activity Not available.
METAR KAQW 292352Z AUTO 00000KT 10SM CLR 18/16 A3011 RMK AO2 SLP196 T01780156 10256 20178 55000

10-Day Weather Forecast

×

Almanac

Astronomy

Aug. 29, 2015 Rise Set
Actual Time
Civil Twilight
Nautical Twilight
Astronomical Twilight
Moon
Length of Visible Light
Length of Day
Tomorrow will be .
, % of the Moon is Illuminated

Today's Extremes

State Highs State Lows

Community

WunderPhotos

Upload Photos

1,850,789 photos uploaded!

WunderBlogs® & News

Nearby

Air Quality

  Air Quality AQ Index Pollutant
Not available.

Snow Depth

Station Depth Elevation

Earthquake Activity

City Distance Mag. Time & Date
Minimum magnitude displayed is 2.5.

Coastal Water Temperatures

Place Temperature

Stations

Nearby Weather Stations

Station Location Temp. Windchill Dew Point Humidity Wind Precip. Elev Updated Type